Time;durP1;ratioP1;P1;durP2;ratioP2;P2;SDS_P1;SDS_P2;PMS_P1;PMS_P2;Temp;Humidity;BMP_temperature;BMP_pressure;BME280_temperature;BME280_humidity;BME280_pressure;Samples;Min_cycle;Max_cycle;Signal;HPM_P1;HPM_P2
2023/04/10 00:00:52;;;;;;;12.93;8.90;;;;;;;7.66;54.88;102217.69;4994428;28;100554;-50
2023/04/10 00:03:18;;;;;;;15.63;10.30;;;;;;;7.65;54.81;102221.63;4993450;28;96816;-50
2023/04/10 00:05:43;;;;;;;14.17;9.60;;;;;;;7.59;54.96;102218.66;4994690;28;97919;-50
2023/04/10 00:08:08;;;;;;;17.03;10.13;;;;;;;7.57;55.04;102221.84;4995010;28;97149;-50
2023/04/10 00:10:34;;;;;;;17.13;10.50;;;;;;;7.56;55.18;102214.81;4994739;28;96794;-48
2023/04/10 00:12:59;;;;;;;17.30;9.70;;;;;;;7.56;54.97;102214.03;4995681;28;97687;-50
2023/04/10 00:15:25;;;;;;;15.77;10.13;;;;;;;7.54;55.04;102211.75;4994491;28;97245;-50
2023/04/10 00:17:53;;;;;;;16.77;10.13;;;;;;;7.51;55.12;102206.38;4995161;28;97132;-51
2023/04/10 00:20:22;;;;;;;16.47;9.63;;;;;;;7.46;55.18;102209.63;4992638;28;97251;-50
2023/04/10 00:22:48;;;;;;;15.63;8.97;;;;;;;7.45;55.51;102202.59;4995600;28;96887;-49
2023/04/10 00:25:14;;;;;;;17.90;9.10;;;;;;;7.42;55.44;102204.25;4991113;28;97088;-50
2023/04/10 00:27:39;;;;;;;13.43;9.33;;;;;;;7.41;55.45;102199.97;4992695;28;97136;-50
2023/04/10 00:30:06;;;;;;;15.27;9.50;;;;;;;7.40;55.40;102198.41;4995308;28;97124;-50
2023/04/10 00:32:31;;;;;;;13.20;8.80;;;;;;;7.34;55.41;102191.94;4991976;28;96786;-50
2023/04/10 00:34:56;;;;;;;12.87;8.27;;;;;;;7.34;55.79;102194.69;4993596;28;97300;-50
2023/04/10 00:37:22;;;;;;;16.43;9.77;;;;;;;7.31;55.91;102192.06;4995007;28;97101;-50
2023/04/10 00:39:47;;;;;;;17.20;10.40;;;;;;;7.32;55.87;102185.34;4993217;28;97386;-49
2023/04/10 00:42:12;;;;;;;15.13;9.83;;;;;;;7.35;55.76;102187.25;4994238;28;96600;-50
2023/04/10 00:44:38;;;;;;;15.13;9.63;;;;;;;7.37;55.72;102184.84;4992133;28;106156;-49
2023/04/10 00:47:04;;;;;;;16.00;10.50;;;;;;;7.38;55.61;102184.41;4993505;28;96942;-50
2023/04/10 00:49:30;;;;;;;19.00;11.13;;;;;;;7.41;55.69;102185.50;4991678;28;96731;-49
2023/04/10 00:51:56;;;;;;;19.30;11.33;;;;;;;7.41;55.83;102189.03;4995074;28;96686;-50
2023/04/10 00:54:22;;;;;;;20.13;11.80;;;;;;;7.43;55.75;102189.34;4993099;28;97380;-50
2023/04/10 00:56:49;;;;;;;21.87;11.83;;;;;;;7.42;55.89;102187.84;4993602;28;98324;-50
2023/04/10 00:59:15;;;;;;;19.10;12.30;;;;;;;7.43;56.25;102189.34;4994088;28;97090;-50
2023/04/10 01:01:40;;;;;;;17.93;11.63;;;;;;;7.41;56.31;102193.72;4992511;28;97196;-50
2023/04/10 01:04:07;;;;;;;24.47;13.30;;;;;;;7.41;56.00;102186.28;4994872;28;97203;-50
2023/04/10 01:06:57;;;;;;;22.27;12.50;;;;;;;7.43;57.29;102185.84;4995953;28;96729;-51
2023/04/10 01:09:44;;;;;;;16.93;10.93;;;;;;;7.41;56.86;102190.97;4993269;28;97469;-50
2023/04/10 01:12:27;;;;;;;20.03;12.67;;;;;;;7.40;57.16;102197.66;4993825;28;97405;-50
2023/04/10 01:15:16;;;;;;;24.07;12.77;;;;;;;7.41;57.31;102186.28;4993316;28;97373;-50
2023/04/10 01:17:54;;;;;;;20.97;12.40;;;;;;;7.41;56.37;102189.03;4992504;28;96942;-49
2023/04/10 01:20:32;;;;;;;19.50;11.20;;;;;;;7.39;56.95;102191.44;4994064;28;96654;-48
2023/04/10 01:23:35;;;;;;;23.33;12.50;;;;;;;7.38;57.56;102198.09;4993654;28;97144;-50
2023/04/10 01:26:06;;;;;;;20.27;12.00;;;;;;;7.37;56.28;102190.31;4994033;28;102002;-50
2023/04/10 01:29:05;;;;;;;21.23;12.20;;;;;;;7.34;57.25;102189.19;4994855;28;97374;-50
2023/04/10 01:31:46;;;;;;;20.47;12.30;;;;;;;7.34;56.28;102191.94;4994167;28;96994;-50
2023/04/10 01:34:19;;;;;;;23.40;12.60;;;;;;;7.35;56.54;102189.97;4995349;28;96865;-49
2023/04/10 01:36:55;;;;;;;23.60;13.80;;;;;;;7.36;57.02;102189.53;4991109;28;98316;-50
2023/04/10 01:39:22;;;;;;;21.87;13.80;;;;;;;7.35;56.57;102179.03;4991665;28;97251;-50
2023/04/10 01:41:51;;;;;;;24.80;12.40;;;;;;;7.35;56.84;102184.50;4993263;28;97265;-50
2023/04/10 01:44:20;;;;;;;22.13;13.00;;;;;;;7.34;56.59;102170.03;4995023;28;97097;-50
2023/04/10 01:46:48;;;;;;;24.37;13.00;;;;;;;7.33;56.75;102182.22;4996699;28;97277;-50
2023/04/10 01:49:14;;;;;;;21.47;12.07;;;;;;;7.34;56.87;102169.25;4993423;28;97261;-50
2023/04/10 01:51:40;;;;;;;22.37;12.87;;;;;;;7.34;56.88;102181.00;4998756;28;96604;-50
2023/04/10 01:54:07;;;;;;;23.93;13.57;;;;;;;7.33;56.75;102174.00;4998785;28;97411;-50
2023/04/10 01:56:33;;;;;;;23.77;13.60;;;;;;;7.35;56.94;102177.06;4996380;28;96940;-50
2023/04/10 01:58:58;;;;;;;22.60;13.40;;;;;;;7.39;57.05;102176.97;4995086;28;97265;-50
2023/04/10 02:01:24;;;;;;;24.23;12.80;;;;;;;7.39;56.79;102166.00;4997519;28;96644;-50
2023/04/10 02:03:49;;;;;;;21.70;13.50;;;;;;;7.41;56.85;102167.13;4999706;28;97357;-49
2023/04/10 02:06:26;;;;;;;24.30;13.40;;;;;;;7.42;57.78;102163.19;4994170;28;97080;-50
2023/04/10 02:09:02;;;;;;;26.00;14.60;;;;;;;7.42;57.38;102160.44;4995671;28;96946;-50
2023/04/10 02:11:57;;;;;;;22.80;13.57;;;;;;;7.41;58.18;102156.16;4997661;28;99879;-50
2023/04/10 02:14:27;;;;;;;21.87;13.23;;;;;;;7.41;56.98;102158.13;4977742;28;97289;-50
2023/04/10 02:16:55;;;;;;;21.83;12.20;;;;;;;7.41;57.19;102158.13;4996263;28;97079;-50
2023/04/10 02:19:22;;;;;;;28.47;15.00;;;;;;;7.40;57.02;102149.13;4994293;28;96716;-50
2023/04/10 02:21:49;;;;;;;23.00;13.17;;;;;;;7.39;57.20;102152.31;4995625;28;97574;-51
2023/04/10 02:24:14;;;;;;;22.93;13.53;;;;;;;7.43;57.06;102142.81;4994909;28;97068;-50
2023/04/10 02:26:47;;;;;;;24.33;13.47;;;;;;;7.46;57.54;102144.69;4998981;28;97635;-50
2023/04/10 02:29:13;;;;;;;21.23;12.97;;;;;;;7.47;57.12;102148.94;4995586;28;97078;-50
2023/04/10 02:31:42;;;;;;;21.00;13.23;;;;;;;7.48;57.30;102138.75;4997646;28;97171;-49
2023/04/10 02:34:08;;;;;;;22.40;12.63;;;;;;;7.50;57.32;102134.41;5001765;28;97276;-51
2023/04/10 02:36:38;;;;;;;22.10;12.90;;;;;;;7.53;57.62;102138.25;4995984;28;102670;-50
2023/04/10 02:39:04;;;;;;;24.80;12.70;;;;;;;7.53;57.20;102138.97;4995223;28;96771;-51
2023/04/10 02:41:29;;;;;;;25.63;13.27;;;;;;;7.54;57.16;102143.28;4995139;28;96734;-50
2023/04/10 02:43:55;;;;;;;25.60;14.07;;;;;;;7.56;57.40;102137.34;4995486;28;97233;-50
2023/04/10 02:46:20;;;;;;;24.60;13.00;;;;;;;7.59;57.13;102136.50;4994183;28;96697;-50
2023/04/10 02:48:46;;;;;;;23.50;13.40;;;;;;;7.62;57.41;102135.63;4995448;28;98536;-50
2023/04/10 02:51:12;;;;;;;23.33;13.20;;;;;;;7.64;57.39;102127.75;4993950;28;97362;-50
2023/04/10 02:53:37;;;;;;;25.57;14.03;;;;;;;7.62;57.25;102121.94;4997131;28;96727;-50
2023/04/10 02:56:05;;;;;;;23.63;14.47;;;;;;;7.63;57.29;102120.72;4993467;28;97275;-49
2023/04/10 02:58:31;;;;;;;22.47;12.73;;;;;;;7.66;57.54;102116.34;4997104;28;97127;-51
2023/04/10 03:00:56;;;;;;;24.73;12.80;;;;;;;7.65;57.58;102110.09;4996534;28;97303;-50
2023/04/10 03:03:22;;;;;;;23.13;13.43;;;;;;;7.67;57.21;102117.88;4999177;28;97138;-50
2023/04/10 03:05:48;;;;;;;25.20;13.67;;;;;;;7.66;57.53;102114.38;4994624;28;96783;-50
2023/04/10 03:08:17;;;;;;;25.97;13.83;;;;;;;7.67;57.65;102115.13;4995890;28;96935;-50
2023/04/10 03:10:44;;;;;;;29.43;13.77;;;;;;;7.69;57.60;102116.22;4997560;28;97090;-50
2023/04/10 03:13:09;;;;;;;23.40;13.53;;;;;;;7.68;57.48;102116.69;4995810;28;97241;-49
2023/04/10 03:15:35;;;;;;;27.77;14.40;;;;;;;7.68;57.56;102111.97;4996514;28;96926;-50
2023/04/10 03:18:01;;;;;;;22.47;13.80;;;;;;;7.68;57.64;102108.47;4992806;28;97457;-50
2023/04/10 03:20:26;;;;;;;21.43;13.57;;;;;;;7.69;57.56;102107.28;4996505;28;97117;-51
2023/04/10 03:22:52;;;;;;;21.63;13.37;;;;;;;7.68;57.72;102108.47;4994997;28;96798;-49
2023/04/10 03:25:17;;;;;;;23.40;13.80;;;;;;;7.66;57.65;102102.66;4998298;28;97854;-49
2023/04/10 03:27:42;;;;;;;24.23;13.47;;;;;;;7.66;57.82;102099.91;4995679;28;101936;-50
2023/04/10 03:30:08;;;;;;;23.97;14.43;;;;;;;7.66;57.85;102097.19;4993514;28;103889;-50
2023/04/10 03:32:33;;;;;;;25.33;13.40;;;;;;;7.64;57.62;102088.63;4995376;28;97180;-49
2023/04/10 03:34:59;;;;;;;22.50;13.03;;;;;;;7.64;57.98;102099.59;4995801;28;96598;-51
2023/04/10 03:37:26;;;;;;;23.43;14.00;;;;;;;7.62;57.76;102102.00;4994591;28;98747;-50
2023/04/10 03:39:51;;;;;;;24.97;14.07;;;;;;;7.59;57.58;102087.19;4995295;28;97041;-51
2023/04/10 03:42:17;;;;;;;22.57;13.60;;;;;;;7.58;57.75;102091.91;4995161;28;97232;-50
2023/04/10 03:44:54;;;;;;;22.03;13.03;;;;;;;7.55;58.19;102084.56;4994737;28;101127;-50
2023/04/10 03:47:19;;;;;;;21.77;13.30;;;;;;;7.52;57.90;102082.69;4995396;28;100670;-50
2023/04/10 03:49:44;;;;;;;21.83;13.60;;;;;;;7.51;57.80;102088.63;4993965;28;97065;-50
2023/04/10 03:52:10;;;;;;;28.60;13.73;;;;;;;7.47;57.59;102088.69;4995158;28;96807;-51
2023/04/10 03:54:35;;;;;;;21.60;13.30;;;;;;;7.42;57.59;102091.22;4996188;28;97197;-50
2023/04/10 03:57:00;;;;;;;26.07;14.43;;;;;;;7.41;57.66;102092.41;4997298;28;97149;-49
2023/04/10 03:59:26;;;;;;;20.80;12.70;;;;;;;7.35;57.95;102096.91;4994887;28;96711;-50
2023/04/10 04:01:52;;;;;;;24.43;13.50;;;;;;;7.29;57.80;102084.94;4993964;28;97493;-50
2023/04/10 04:04:17;;;;;;;21.47;13.20;;;;;;;7.28;57.70;102088.88;4991848;28;96696;-50
2023/04/10 04:06:43;;;;;;;23.37;13.93;;;;;;;7.22;57.85;102088.66;4996901;28;97169;-48
2023/04/10 04:09:08;;;;;;;25.77;15.20;;;;;;;7.22;58.10;102085.16;4993484;28;97008;-49
2023/04/10 04:11:33;;;;;;;25.20;13.20;;;;;;;7.21;58.10;102083.59;4993929;28;98817;-50
2023/04/10 04:13:59;;;;;;;25.57;14.83;;;;;;;7.17;58.18;102086.44;4995638;28;97340;-50
2023/04/10 04:16:24;;;;;;;25.50;15.40;;;;;;;7.15;58.25;102082.59;4993316;28;97660;-51
2023/04/10 04:18:49;;;;;;;21.93;13.67;;;;;;;7.13;58.05;102076.78;4995369;28;97055;-49
2023/04/10 04:21:15;;;;;;;25.90;14.30;;;;;;;7.10;58.17;102074.94;4995778;28;97535;-50
2023/04/10 04:23:40;;;;;;;23.43;14.20;;;;;;;7.10;58.03;102077.69;4998005;28;97843;-50
2023/04/10 04:26:05;;;;;;;25.77;14.53;;;;;;;7.11;57.81;102073.72;4992301;28;114365;-51
2023/04/10 04:28:31;;;;;;;22.77;12.77;;;;;;;7.10;57.93;102075.69;4994299;28;97223;-51
2023/04/10 04:30:56;;;;;;;22.87;13.47;;;;;;;7.09;57.68;102070.66;4994642;28;97410;-49
2023/04/10 04:33:21;;;;;;;21.50;13.60;;;;;;;7.09;57.85;102073.41;4991671;28;96652;-50
2023/04/10 04:35:46;;;;;;;23.63;13.87;;;;;;;7.09;57.76;102076.13;4996228;28;97173;-50
2023/04/10 04:38:12;;;;;;;24.30;13.40;;;;;;;7.08;57.92;102075.34;4994531;28;99698;-51
2023/04/10 04:40:37;;;;;;;23.67;13.77;;;;;;;7.04;58.05;102080.16;4994327;28;96749;-50
2023/04/10 04:43:03;;;;;;;23.20;13.30;;;;;;;7.02;58.07;102079.06;4991910;28;96728;-49
2023/04/10 04:45:29;;;;;;;28.60;14.63;;;;;;;7.02;57.88;102079.84;4993016;28;111040;-51
2023/04/10 04:47:55;;;;;;;23.60;13.00;;;;;;;7.00;58.01;102076.75;4993350;28;96794;-50
2023/04/10 04:50:20;;;;;;;22.17;13.03;;;;;;;6.99;58.00;102083.41;4995543;28;97054;-49
2023/04/10 04:52:45;;;;;;;22.70;12.90;;;;;;;7.01;58.41;102088.47;4994469;28;106780;-50
2023/04/10 04:55:11;;;;;;;20.90;12.70;;;;;;;7.00;58.38;102076.75;4992591;28;109859;-50
2023/04/10 04:57:36;;;;;;;21.27;13.00;;;;;;;7.01;58.22;102075.53;4994959;28;98156;-49
2023/04/10 05:00:02;;;;;;;24.97;13.90;;;;;;;7.01;58.16;102083.75;4996497;28;100688;-50
2023/04/10 05:02:27;;;;;;;23.50;13.77;;;;;;;7.04;58.30;102080.16;4992829;28;96959;-50
2023/04/10 05:04:52;;;;;;;21.70;13.53;;;;;;;7.08;58.12;102085.53;4994360;28;104099;-50
2023/04/10 05:07:18;;;;;;;23.33;14.27;;;;;;;7.11;58.14;102079.97;4993836;28;98736;-49
2023/04/10 05:09:43;;;;;;;23.30;13.40;;;;;;;7.13;58.03;102082.28;4992382;28;97719;-48
2023/04/10 05:12:08;;;;;;;23.17;12.60;;;;;;;7.13;58.36;102085.00;4993686;28;97340;-50
2023/04/10 05:14:34;;;;;;;25.50;14.40;;;;;;;7.16;58.51;102081.41;4992873;28;101639;-50
2023/04/10 05:16:59;;;;;;;25.17;14.30;;;;;;;7.20;58.33;102079.34;4993010;28;97202;-50
2023/04/10 05:19:24;;;;;;;20.63;13.07;;;;;;;7.22;58.44;102087.88;4998862;28;97313;-50
2023/04/10 05:21:50;;;;;;;26.60;14.67;;;;;;;7.26;58.20;102083.84;4999268;28;109462;-50
2023/04/10 05:24:15;;;;;;;25.23;14.27;;;;;;;7.27;58.55;102077.16;5000036;28;97209;-50
2023/04/10 05:26:41;;;;;;;22.83;13.87;;;;;;;7.31;58.60;102083.31;4997842;28;97070;-50
2023/04/10 05:29:07;;;;;;;23.90;13.20;;;;;;;7.38;58.54;102085.09;4999451;28;96960;-48
2023/04/10 05:31:32;;;;;;;25.40;14.37;;;;;;;7.41;58.53;102087.72;4997451;28;97086;-50
2023/04/10 05:33:57;;;;;;;22.30;13.90;;;;;;;7.47;58.55;102090.66;4997740;28;96812;-51
2023/04/10 05:36:23;;;;;;;22.90;12.60;;;;;;;7.54;58.73;102091.25;4995189;28;97152;-51
2023/04/10 05:38:48;;;;;;;22.83;12.30;;;;;;;7.61;58.58;102084.00;4996087;28;96944;-50
2023/04/10 05:41:13;;;;;;;24.07;13.87;;;;;;;7.67;58.67;102093.22;4996968;28;106960;-49
2023/04/10 05:43:39;;;;;;;22.20;13.33;;;;;;;7.74;58.52;102095.75;4994386;28;109048;-51
2023/04/10 05:46:04;;;;;;;25.40;13.80;;;;;;;7.78;58.39;102099.91;4998380;28;97205;-50
2023/04/10 05:48:30;;;;;;;24.00;13.27;;;;;;;7.85;58.41;102093.44;4997215;28;97134;-50
2023/04/10 05:50:55;;;;;;;24.40;14.47;;;;;;;7.93;58.61;102094.78;4994945;28;98640;-50
2023/04/10 05:53:21;;;;;;;22.30;13.93;;;;;;;8.01;58.34;102098.84;4995850;28;96934;-50
2023/04/10 05:55:53;;;;;;;21.97;12.57;;;;;;;8.09;58.33;102100.13;4996243;28;97345;-49
2023/04/10 05:58:18;;;;;;;20.60;12.87;;;;;;;8.15;58.36;102101.13;4996942;28;97127;-50
2023/04/10 06:00:44;;;;;;;25.43;13.47;;;;;;;8.22;58.28;102103.63;4998043;28;112638;-50
2023/04/10 06:03:10;;;;;;;22.07;12.60;;;;;;;8.30;58.11;102096.75;4994092;28;97393;-51
2023/04/10 06:05:35;;;;;;;23.00;14.20;;;;;;;8.36;58.27;102089.50;4996504;28;96885;-50
2023/04/10 06:08:00;;;;;;;23.40;13.03;;;;;;;8.43;58.15;102091.25;4993704;28;97167;-49
2023/04/10 06:10:28;;;;;;;27.57;14.53;;;;;;;8.47;58.30;102083.69;4998050;28;97383;-49
2023/04/10 06:12:53;;;;;;;22.20;13.10;;;;;;;8.52;58.37;102081.13;4995758;28;97633;-50
2023/04/10 06:15:19;;;;;;;22.90;12.83;;;;;;;8.56;58.20;102083.75;4993928;28;102908;-51
2023/04/10 06:17:44;;;;;;;22.20;12.23;;;;;;;8.60;58.51;102074.22;4994492;28;97253;-50
2023/04/10 06:20:10;;;;;;;24.03;13.57;;;;;;;8.65;58.48;102070.13;4997122;28;97339;-50
2023/04/10 06:22:35;;;;;;;22.67;13.60;;;;;;;8.73;58.23;102060.44;4998006;28;97291;-49
2023/04/10 06:25:00;;;;;;;21.37;14.03;;;;;;;8.80;58.28;102049.22;4993256;28;98057;-50
2023/04/10 06:27:27;;;;;;;22.40;13.10;;;;;;;8.86;58.25;102047.44;4995077;28;98899;-50
2023/04/10 06:29:52;;;;;;;22.43;13.30;;;;;;;8.91;58.51;102049.63;4995402;28;97323;-50
2023/04/10 06:32:18;;;;;;;19.80;12.80;;;;;;;8.97;58.58;102045.84;4997212;28;97298;-49
2023/04/10 06:34:43;;;;;;;24.37;13.37;;;;;;;9.04;58.47;102040.09;4997047;28;96982;-50
2023/04/10 06:37:09;;;;;;;21.67;13.20;;;;;;;9.14;58.46;102048.38;4997146;28;97821;-51
2023/04/10 06:39:34;;;;;;;20.70;13.30;;;;;;;9.21;58.36;102046.16;4999297;28;97244;-49
2023/04/10 06:42:01;;;;;;;23.03;14.13;;;;;;;9.29;58.42;102043.91;4996823;28;96962;-50
2023/04/10 06:44:26;;;;;;;21.23;13.13;;;;;;;9.36;58.15;102047.16;4996505;28;97497;-49
2023/04/10 06:46:52;;;;;;;21.77;13.47;;;;;;;9.44;58.33;102039.41;4994970;28;97184;-50
2023/04/10 06:49:17;;;;;;;19.50;12.83;;;;;;;9.50;58.30;102043.09;4993745;28;97335;-50
2023/04/10 06:51:44;;;;;;;17.27;11.50;;;;;;;9.58;58.15;102042.38;4995315;28;96745;-50
2023/04/10 06:54:10;;;;;;;22.17;13.27;;;;;;;9.71;58.17;102039.53;4994912;28;97058;-50
2023/04/10 06:56:35;;;;;;;20.03;11.67;;;;;;;9.81;57.76;102038.34;4996511;28;97882;-50
2023/04/10 06:59:00;;;;;;;21.47;12.60;;;;;;;9.91;57.99;102034.41;4994916;28;96656;-50
2023/04/10 07:01:26;;;;;;;19.27;12.20;;;;;;;10.01;58.01;102035.97;4994600;28;97441;-50
2023/04/10 07:03:51;;;;;;;19.70;12.50;;;;;;;10.07;57.94;102042.38;4994186;28;97511;-50
2023/04/10 07:06:16;;;;;;;20.77;12.70;;;;;;;10.14;57.90;102036.63;4997361;28;101378;-51
2023/04/10 07:08:42;;;;;;;18.00;12.00;;;;;;;10.22;58.06;102037.88;4994757;28;104669;-49
2023/04/10 07:11:07;;;;;;;18.70;11.43;;;;;;;10.31;58.04;102028.88;4993740;28;113062;-50
2023/04/10 07:13:34;;;;;;;19.47;11.73;;;;;;;10.39;57.92;102030.09;4996252;28;96700;-50
2023/04/10 07:15:59;;;;;;;17.93;11.00;;;;;;;10.46;57.71;102033.31;4995792;28;96850;-50
2023/04/10 07:18:25;;;;;;;20.47;11.40;;;;;;;10.57;57.78;102021.09;4995529;28;97081;-50
2023/04/10 07:20:51;;;;;;;15.23;11.13;;;;;;;10.69;57.56;102014.66;4994791;28;97926;-50
2023/04/10 07:23:16;;;;;;;21.00;11.37;;;;;;;10.80;57.63;102024.00;4997147;28;97196;-49
2023/04/10 07:25:42;;;;;;;18.13;12.00;;;;;;;10.95;57.44;102015.84;4996546;28;97018;-51
2023/04/10 07:28:07;;;;;;;16.87;11.60;;;;;;;11.12;57.42;102011.53;4994668;28;97399;-50
2023/04/10 07:30:32;;;;;;;16.27;11.07;;;;;;;11.25;57.41;102015.63;4993471;28;97261;-50
2023/04/10 07:32:58;;;;;;;14.20;10.50;;;;;;;11.36;57.19;102017.91;4994369;28;97514;-51
2023/04/10 07:35:23;;;;;;;18.63;11.27;;;;;;;11.49;57.04;102014.97;4994007;28;100572;-49
2023/04/10 07:37:51;;;;;;;13.10;10.00;;;;;;;11.64;57.01;102013.81;4995907;28;97311;-51
2023/04/10 07:40:16;;;;;;;14.17;10.23;;;;;;;11.79;56.86;102011.19;4994302;28;96965;-50
2023/04/10 07:42:42;;;;;;;14.93;9.60;;;;;;;11.94;56.75;102015.53;4993845;28;96999;-51
2023/04/10 07:45:08;;;;;;;17.87;11.67;;;;;;;12.07;56.44;102006.25;4996047;28;97004;-51
2023/04/10 07:47:33;;;;;;;11.83;9.63;;;;;;;12.21;56.26;102009.06;4996836;28;99864;-51
2023/04/10 07:49:58;;;;;;;15.73;11.53;;;;;;;12.36;56.04;102004.34;4993772;28;103012;-50
2023/04/10 07:52:24;;;;;;;12.60;9.57;;;;;;;12.52;55.95;102005.94;4995048;28;97409;-49
2023/04/10 07:54:49;;;;;;;14.70;10.10;;;;;;;12.65;55.76;101992.63;4996487;28;96865;-51
2023/04/10 07:57:15;;;;;;;14.40;9.90;;;;;;;12.79;55.45;101989.13;4993267;28;97247;-50
2023/04/10 07:59:40;;;;;;;12.23;9.10;;;;;;;12.95;55.42;101994.19;4993829;28;96856;-50
2023/04/10 08:02:05;;;;;;;13.60;9.70;;;;;;;13.09;55.33;101990.69;4992908;28;98024;-50
2023/04/10 08:04:31;;;;;;;12.80;9.37;;;;;;;13.22;55.20;101993.91;4997223;28;96945;-51
2023/04/10 08:06:56;;;;;;;16.13;10.07;;;;;;;13.39;55.08;101991.41;4994345;28;97173;-50
2023/04/10 08:09:22;;;;;;;12.93;9.20;;;;;;;13.58;54.85;101980.91;4994094;28;98887;-51
2023/04/10 08:11:47;;;;;;;11.47;8.30;;;;;;;13.76;54.63;101973.09;4994440;28;97781;-51
2023/04/10 08:14:12;;;;;;;12.43;9.20;;;;;;;13.95;54.34;101979.16;4996345;28;97219;-51
2023/04/10 08:16:38;;;;;;;11.17;8.70;;;;;;;14.17;54.18;101979.44;4988707;28;97006;-51
2023/04/10 08:19:04;;;;;;;10.00;8.00;;;;;;;14.38;53.81;101971.91;4993926;28;97070;-50
2023/04/10 08:21:33;;;;;;;11.40;8.40;;;;;;;14.56;53.62;101969.59;4996178;28;97024;-49
2023/04/10 08:24:00;;;;;;;10.70;8.27;;;;;;;14.73;53.55;101972.53;4997225;28;97167;-50
2023/04/10 08:26:26;;;;;;;10.37;7.60;;;;;;;14.91;53.09;101969.44;4992659;28;96898;-50
2023/04/10 08:28:54;;;;;;;9.60;8.60;;;;;;;15.06;52.95;101963.75;4993749;28;96996;-50
2023/04/10 08:31:21;;;;;;;12.07;9.17;;;;;;;15.23;52.77;101965.41;4995011;28;97466;-51
2023/04/10 08:33:47;;;;;;;12.23;9.50;;;;;;;15.43;52.41;101953.44;4993383;28;97120;-51
2023/04/10 08:36:17;;;;;;;10.17;8.57;;;;;;;15.62;52.25;101955.38;4995367;28;97409;-50
2023/04/10 08:38:45;;;;;;;11.23;8.20;;;;;;;15.82;51.35;101959.25;4991239;28;97071;-50
2023/04/10 08:41:12;;;;;;;8.23;6.93;;;;;;;16.03;51.46;101953.03;4995153;28;97006;-49
2023/04/10 08:43:38;;;;;;;8.53;7.33;;;;;;;16.23;51.07;101946.53;4993866;28;97047;-51
2023/04/10 08:46:04;;;;;;;8.80;6.70;;;;;;;16.44;51.10;101950.66;4993263;28;97311;-50
2023/04/10 08:48:42;;;;;;;8.90;7.57;;;;;;;16.69;49.09;101948.94;4993895;28;97115;-51
2023/04/10 08:51:12;;;;;;;7.10;6.40;;;;;;;16.90;50.00;101947.47;4992117;28;97160;-51
2023/04/10 08:53:40;;;;;;;7.80;6.60;;;;;;;17.13;50.16;101937.84;4994865;28;97034;-50
2023/04/10 08:56:06;;;;;;;6.87;6.20;;;;;;;17.33;49.68;101934.81;4997338;28;97126;-50
2023/04/10 08:58:32;;;;;;;6.80;6.00;;;;;;;17.54;49.61;101929.75;4996581;28;97625;-51
2023/04/10 09:00:58;;;;;;;7.03;6.37;;;;;;;17.75;49.19;101925.38;4997073;28;96865;-50
2023/04/10 09:03:24;;;;;;;6.70;6.00;;;;;;;17.92;49.24;101928.84;4999097;28;97125;-49
2023/04/10 09:05:49;;;;;;;7.47;6.67;;;;;;;18.14;48.83;101923.19;4999188;28;97514;-50
2023/04/10 09:08:14;;;;;;;7.27;6.57;;;;;;;18.36;48.66;101922.28;4996309;28;97217;-51
2023/04/10 09:10:40;;;;;;;7.33;6.60;;;;;;;18.50;48.03;101910.81;4997729;28;97095;-51
2023/04/10 09:13:05;;;;;;;6.73;6.00;;;;;;;18.66;47.81;101909.94;4998824;28;98344;-50
2023/04/10 09:16:00;;;;;;;8.40;6.57;;;;;;;18.86;46.32;101903.22;4994974;28;100634;-51
2023/04/10 09:18:46;;;;;;;7.30;6.60;;;;;;;19.06;44.74;101897.19;5002742;28;97052;-51
2023/04/10 09:21:15;;;;;;;6.97;6.30;;;;;;;19.18;47.02;101895.03;4994771;28;96975;-51
2023/04/10 09:23:43;;;;;;;6.87;6.17;;;;;;;19.30;46.96;101894.44;4995996;28;96796;-51
2023/04/10 09:26:24;;;;;;;6.50;5.90;;;;;;;19.40;44.88;101881.66;4995402;28;97363;-50
2023/04/10 09:29:04;;;;;;;7.33;6.63;;;;;;;19.55;44.42;101877.69;4993840;28;97285;-50
2023/04/10 09:31:34;;;;;;;7.23;6.53;;;;;;;19.63;46.02;101875.81;4997860;28;97057;-51
2023/04/10 09:34:07;;;;;;;6.57;5.87;;;;;;;19.68;44.45;101866.63;4996019;28;96828;-51
2023/04/10 09:36:32;;;;;;;6.67;6.00;;;;;;;19.76;45.73;101864.72;4994311;28;97468;-50
2023/04/10 09:38:58;;;;;;;6.87;6.10;;;;;;;19.78;45.53;101867.75;4997403;28;96636;-49
2023/04/10 09:41:23;;;;;;;6.77;6.00;;;;;;;19.80;45.21;101854.00;4995574;28;96689;-51
2023/04/10 09:43:48;;;;;;;7.33;5.90;;;;;;;19.87;44.84;101850.63;4997876;28;96867;-51
2023/04/10 09:46:25;;;;;;;7.07;6.03;;;;;;;19.93;42.53;101846.47;4994142;28;97841;-51
2023/04/10 09:48:55;;;;;;;6.50;5.90;;;;;;;19.97;44.06;101846.16;4993605;28;97652;-49
2023/04/10 09:51:29;;;;;;;6.37;5.43;;;;;;;19.95;42.32;101843.13;4993545;28;97266;-50
2023/04/10 09:53:54;;;;;;;6.77;6.17;;;;;;;19.92;44.34;101841.41;4998383;28;96905;-51
2023/04/10 09:56:21;;;;;;;7.20;6.40;;;;;;;19.90;44.02;101827.97;4996044;28;97494;-52
2023/04/10 09:58:48;;;;;;;6.50;5.90;;;;;;;19.89;43.54;101831.28;4994893;28;97396;-52
2023/04/10 10:01:14;;;;;;;6.67;5.80;;;;;;;19.91;43.84;101825.94;4997277;28;97006;-51
2023/04/10 10:03:40;;;;;;;6.90;5.60;;;;;;;19.93;43.87;101824.13;4994206;28;96979;-51
2023/04/10 10:06:06;;;;;;;8.00;5.93;;;;;;;19.99;43.43;101810.06;5002885;28;97304;-52
2023/04/10 10:08:33;;;;;;;6.20;5.60;;;;;;;20.08;43.15;101807.63;4995545;28;97153;-51
2023/04/10 10:10:59;;;;;;;5.33;4.83;;;;;;;20.17;43.35;101804.47;4994648;28;97334;-51
2023/04/10 10:13:40;;;;;;;5.77;5.23;;;;;;;20.27;42.69;101799.22;4997873;28;97441;-52
2023/04/10 10:16:19;;;;;;;5.10;4.70;;;;;;;20.31;40.96;101796.91;4997858;28;96984;-51
2023/04/10 10:18:50;;;;;;;6.23;5.20;;;;;;;20.32;40.69;101795.59;4997342;28;97251;-51
2023/04/10 10:21:16;;;;;;;5.97;5.40;;;;;;;20.35;42.44;101802.19;4995741;28;101199;-51
2023/04/10 10:23:43;;;;;;;5.30;4.80;;;;;;;20.37;42.21;101788.41;4996465;28;97471;-51
2023/04/10 10:26:09;;;;;;;5.17;4.67;;;;;;;20.41;42.13;101791.66;4994790;28;98019;-51
2023/04/10 10:28:36;;;;;;;5.20;4.70;;;;;;;20.46;42.01;101779.63;4997387;28;97265;-51
2023/04/10 10:31:05;;;;;;;5.03;4.53;;;;;;;20.46;40.70;101765.66;4995316;28;97134;-49
2023/04/10 10:33:34;;;;;;;4.80;4.30;;;;;;;20.49;41.64;101762.53;4994918;28;97142;-51
2023/04/10 10:36:00;;;;;;;4.57;4.17;;;;;;;20.56;41.40;101750.72;4993106;28;97366;-51
2023/04/10 10:38:27;;;;;;;4.90;4.50;;;;;;;20.70;41.30;101745.91;4994657;28;96842;-51
2023/04/10 10:41:28;;;;;;;4.37;3.97;;;;;;;20.80;36.09;101739.34;4998156;28;97014;-51
2023/04/10 10:44:05;;;;;;;4.00;3.73;;;;;;;21.00;39.44;101737.16;4997565;28;97212;-51
2023/04/10 10:46:43;;;;;;;4.07;3.77;;;;;;;21.16;39.73;101736.88;4996280;28;98810;-52
2023/04/10 10:49:08;;;;;;;3.80;3.50;;;;;;;21.21;39.88;101735.25;4994613;28;97907;-52
2023/04/10 10:52:00;;;;;;;4.20;3.80;;;;;;;21.27;36.39;101716.28;4993496;28;97067;-51
2023/04/10 10:54:33;;;;;;;3.23;3.00;;;;;;;21.35;38.67;101714.31;4994620;28;97136;-52
2023/04/10 10:56:59;;;;;;;3.80;3.53;;;;;;;21.50;39.26;101700.50;4994237;28;97144;-52
2023/04/10 11:00:00;;;;;;;5.33;3.27;;;;;;;21.64;32.35;101699.16;4993259;28;97352;-52
2023/04/10 11:02:26;;;;;;;4.60;4.10;;;;;;;21.78;38.48;101697.78;4944243;28;97334;-52
2023/04/10 11:04:51;;;;;;;3.93;3.63;;;;;;;21.86;38.49;101695.09;4986123;28;97370;-51
2023/04/10 11:07:17;;;;;;;3.40;3.20;;;;;;;22.01;38.13;101687.59;4998574;28;96974;-51
2023/04/10 11:09:43;;;;;;;3.60;3.30;;;;;;;22.15;37.61;101689.00;4993753;28;97421;-52
2023/04/10 11:12:08;;;;;;;3.30;3.10;;;;;;;22.20;37.31;101685.31;4997492;28;97452;-51
2023/04/10 11:14:33;;;;;;;4.30;3.97;;;;;;;22.23;37.49;101681.41;4996584;28;97649;-51
2023/04/10 11:16:59;;;;;;;3.40;3.13;;;;;;;22.30;37.46;101663.88;4995236;28;97407;-52
2023/04/10 11:19:24;;;;;;;3.77;3.47;;;;;;;22.23;37.48;101661.03;4992266;28;97608;-50